Time;durP1;ratioP1;P1;durP2;ratioP2;P2;SDS_P1;SDS_P2;PMS_P1;PMS_P2;Temp;Humidity;BMP_temperature;BMP_pressure;BME280_temperature;BME280_humidity;BME280_pressure;Samples;Min_cycle;Max_cycle;Signal;HPM_P1;HPM_P2
2021/06/08 07:09:52;;;;;;;7.85;7.15;;;;;;;;;;13066201;22;20394;-87
2021/06/08 07:15:05;;;;;;;5.25;3.65;;;;;;;;;;13065322;22;20080;-84
2021/06/08 07:20:07;;;;;;;8.30;7.57;;;;;;;;;;13038116;22;20007;-81
2021/06/08 07:25:08;;;;;;;9.75;8.90;;;;;;;;;;13039533;22;20005;-81
2021/06/08 07:30:10;;;;;;;7.43;6.28;;;;;;;;;;13041891;22;20030;-83
2021/06/08 07:35:29;;;;;;;6.30;4.63;;;;;;;;;;13040115;22;20003;-82
2021/06/08 07:40:36;;;;;;;7.10;6.43;;;;;;;;;;13039896;22;20014;-82
2021/06/08 07:45:40;;;;;;;5.10;4.60;;;;;;;;;;13040283;22;20010;-83
2021/06/08 07:50:43;;;;;;;6.47;5.45;;;;;;;;;;13040708;22;20446;-83
2021/06/08 07:55:45;;;;;;;10.30;9.40;;;;;;;;;;13040412;22;20090;-84
2021/06/08 08:00:48;;;;;;;6.15;5.57;;;;;;;;;;13041909;22;20437;-84
2021/06/08 08:05:49;;;;;;;10.23;9.23;;;;;;;;;;13041345;22;20022;-82
2021/06/08 08:10:52;;;;;;;6.90;6.18;;;;;;;;;;13038601;22;20042;-82
2021/06/08 08:16:17;;;;;;;6.97;6.22;;;;;;;;;;13037968;22;20139;-82
2021/06/08 08:21:19;;;;;;;5.18;4.60;;;;;;;;;;13040027;22;20017;-84
2021/06/08 08:26:20;;;;;;;3.55;3.25;;;;;;;;;;13041053;22;20090;-83
2021/06/08 08:31:23;;;;;;;4.57;4.00;;;;;;;;;;13039470;22;20049;-85
2021/06/08 08:36:27;;;;;;;7.03;6.30;;;;;;;;;;13041053;22;20078;-84
2021/06/08 08:41:28;;;;;;;7.88;7.07;;;;;;;;;;13042760;22;20387;-84
2021/06/08 08:46:29;;;;;;;5.88;5.38;;;;;;;;;;13058201;22;20014;-83
2021/06/08 08:51:31;;;;;;;5.00;4.60;;;;;;;;;;13042052;22;20003;-83
2021/06/08 08:56:37;;;;;;;4.90;4.50;;;;;;;;;;13036311;22;20019;-84
2021/06/08 09:01:40;;;;;;;4.68;4.28;;;;;;;;;;13035671;22;20323;-84
2021/06/08 09:06:42;;;;;;;5.15;4.75;;;;;;;;;;13038685;22;20011;-83
2021/06/08 09:11:43;;;;;;;4.63;4.00;;;;;;;;;;13039943;22;20007;-84
2021/06/08 09:16:44;;;;;;;5.50;5.00;;;;;;;;;;13067684;22;19995;-84
2021/06/08 09:21:54;;;;;;;4.90;4.50;;;;;;;;;;13040726;22;20018;-85
2021/06/08 09:27:00;;;;;;;4.15;3.85;;;;;;;;;;13040516;22;20003;-86
2021/06/08 09:32:22;;;;;;;5.10;4.15;;;;;;;;;;13036586;22;20055;-83
2021/06/08 09:37:29;;;;;;;6.13;5.43;;;;;;;;;;13036763;22;20003;-83
2021/06/08 09:42:31;;;;;;;6.95;6.35;;;;;;;;;;13072384;22;20025;-84
2021/06/08 09:47:32;;;;;;;4.95;4.55;;;;;;;;;;13069594;22;20011;-82
2021/06/08 09:52:33;;;;;;;5.10;4.45;;;;;;;;;;13064123;22;20323;-87
2021/06/08 09:57:34;;;;;;;6.45;5.85;;;;;;;;;;13039882;22;20083;-85
2021/06/08 10:02:41;;;;;;;6.05;5.45;;;;;;;;;;13039061;22;20141;-85
2021/06/08 10:07:42;;;;;;;6.37;5.33;;;;;;;;;;13038886;22;20003;-85
2021/06/08 10:13:03;;;;;;;6.70;4.78;;;;;;;;;;13034289;22;20010;-85
2021/06/08 10:29:06;;;;;;;5.63;4.82;;;;;;;;;;13023335;22;20043;-84
2021/06/08 10:45:37;;;;;;;5.63;5.13;;;;;;;;;;12631264;23;20400;-88
2021/06/08 11:31:03;;;;;;;7.85;4.28;;;;;;;;;;12728326;23;20013;-86
2021/06/08 12:33:20;;;;;;;4.75;4.30;;;;;;;;;;12864133;23;20020;-87
2021/06/08 12:38:49;;;;;;;5.75;5.22;;;;;;;;;;12851859;23;20046;-88
2021/06/08 12:43:57;;;;;;;5.63;5.22;;;;;;;;;;12845160;23;20024;-87
2021/06/08 14:04:27;;;;;;;6.05;4.55;;;;;;;;;;12867000;23;20428;-85
2021/06/08 14:09:49;;;;;;;4.60;4.20;;;;;;;;;;12845065;23;20032;-87
2021/06/08 14:14:52;;;;;;;5.95;4.88;;;;;;;;;;12851867;23;20017;-87
2021/06/08 14:19:58;;;;;;;4.90;4.40;;;;;;;;;;12851596;23;20034;-86
2021/06/08 14:24:59;;;;;;;4.93;4.32;;;;;;;;;;12852127;23;20044;-86
2021/06/08 14:30:00;;;;;;;7.28;4.38;;;;;;;;;;12858073;23;20008;-87
2021/06/08 14:40:45;;;;;;;4.30;3.90;;;;;;;;;;12874359;23;20008;-87
2021/06/08 14:45:46;;;;;;;7.78;7.07;;;;;;;;;;12848203;23;20012;-87
2021/06/08 14:50:54;;;;;;;5.63;5.13;;;;;;;;;;12861341;23;20004;-87
2021/06/08 14:55:58;;;;;;;4.70;4.30;;;;;;;;;;12847982;23;20009;-86
2021/06/08 15:01:02;;;;;;;4.45;4.05;;;;;;;;;;12846000;23;20000;-87
2021/06/08 15:06:08;;;;;;;4.75;4.35;;;;;;;;;;12847528;23;20083;-88
2021/06/08 15:11:10;;;;;;;5.45;4.95;;;;;;;;;;12847191;23;20007;-88
2021/06/08 15:16:12;;;;;;;8.15;5.68;;;;;;;;;;12847397;23;20385;-88
2021/06/08 15:21:18;;;;;;;5.57;5.18;;;;;;;;;;12847536;23;20383;-89
2021/06/08 15:26:49;;;;;;;5.60;4.93;;;;;;;;;;12847706;23;20004;-88
2021/06/08 15:31:52;;;;;;;6.90;6.30;;;;;;;;;;12847543;23;20396;-88
2021/06/08 15:37:29;;;;;;;5.35;4.85;;;;;;;;;;12850849;23;20036;-87
2021/06/08 16:00:23;;;;;;;8.82;8.02;;;;;;;;;;12874495;23;19996;-87
2021/06/08 16:11:12;;;;;;;10.27;7.90;;;;;;;;;;12874259;23;20012;-88
2021/06/08 16:21:55;;;;;;;12.38;11.38;;;;;;;;;;12900596;23;20099;-86
2021/06/08 16:26:56;;;;;;;7.63;6.80;;;;;;;;;;12866827;23;20091;-87
2021/06/08 16:37:47;;;;;;;9.80;8.82;;;;;;;;;;12906032;23;20017;-87
2021/06/08 16:43:05;;;;;;;10.33;6.43;;;;;;;;;;12850049;23;20011;-87
2021/06/08 16:48:11;;;;;;;6.53;5.93;;;;;;;;;;12876994;23;20049;-88
2021/06/08 16:53:35;;;;;;;7.10;6.43;;;;;;;;;;12869223;23;20011;-87
2021/06/08 17:04:20;;;;;;;11.48;10.52;;;;;;;;;;12870963;23;20029;-88
2021/06/08 17:09:23;;;;;;;11.32;10.30;;;;;;;;;;12817670;23;20013;-89
2021/06/08 17:42:47;;;;;;;7.40;6.80;;;;;;;;;;12732891;23;20017;-89
2021/06/08 18:21:57;;;;;;;10.23;9.32;;;;;;;;;;12806841;23;20068;-88
2021/06/08 18:33:03;;;;;;;10.30;9.30;;;;;;;;;;12801383;23;20036;-90
